Time;durP1;ratioP1;P1;durP2;ratioP2;P2;SDS_P1;SDS_P2;PMS_P1;PMS_P2;Temp;Humidity;BMP_temperature;BMP_pressure;BME280_temperature;BME280_humidity;BME280_pressure;Samples;Min_cycle;Max_cycle;Signal;HPM_P1;HPM_P2
2022/08/07 00:01:47;;;;;;;6.03;5.42;;;;;;;16.50;79.89;97873.50;1756200;81;27417;-76
2022/08/07 00:04:14;;;;;;;6.55;5.05;;;;;;;16.46;79.99;97875.02;1756010;81;25688;-76
2022/08/07 00:06:40;;;;;;;6.25;4.55;;;;;;;16.45;80.00;97869.28;1756074;81;25918;-75
2022/08/07 00:09:07;;;;;;;8.03;4.55;;;;;;;16.46;79.99;97866.85;1755925;81;25738;-76
2022/08/07 00:11:34;;;;;;;7.10;4.67;;;;;;;16.46;79.91;97866.85;1755896;81;25271;-76
2022/08/07 00:14:00;;;;;;;7.12;4.78;;;;;;;16.46;79.88;97873.66;1756185;81;27421;-75
2022/08/07 00:16:27;;;;;;;5.05;4.28;;;;;;;16.46;79.83;97869.58;1755949;81;25330;-76
2022/08/07 00:18:53;;;;;;;6.10;4.30;;;;;;;16.44;79.78;97867.62;1756000;81;25805;-76
2022/08/07 00:21:20;;;;;;;6.08;4.20;;;;;;;16.41;79.77;97870.84;1773928;80;25890;-76
2022/08/07 00:23:47;;;;;;;5.58;3.80;;;;;;;16.41;79.71;97869.48;1785655;80;25776;-75
2022/08/07 00:26:13;;;;;;;4.42;4.03;;;;;;;16.39;79.65;97867.52;1785480;80;28213;-76
2022/08/07 00:28:40;;;;;;;8.05;3.67;;;;;;;16.36;79.59;97871.53;1785384;80;25791;-76
2022/08/07 00:31:11;;;;;;;5.47;3.72;;;;;;;16.35;79.61;97875.86;1785430;80;25794;-76
2022/08/07 00:33:39;;;;;;;5.78;4.50;;;;;;;16.34;79.66;97875.56;1785424;80;26440;-76
2022/08/07 00:36:07;;;;;;;4.62;3.67;;;;;;;16.33;79.69;97878.81;1785577;80;25745;-76
2022/08/07 00:38:35;;;;;;;4.85;3.83;;;;;;;16.30;79.74;97875.75;1785718;80;28048;-76
2022/08/07 00:41:04;;;;;;;3.98;3.65;;;;;;;16.31;79.66;97879.58;1785524;80;25693;-76
2022/08/07 00:43:30;;;;;;;4.22;3.37;;;;;;;16.29;79.60;97881.73;1785694;80;26769;-76
2022/08/07 00:45:59;;;;;;;4.05;3.25;;;;;;;16.30;79.60;97889.37;1785020;79;25734;-75
2022/08/07 00:48:26;;;;;;;4.92;3.40;;;;;;;16.28;79.60;97893.69;1784971;80;25849;-76
2022/08/07 00:50:55;;;;;;;3.75;3.30;;;;;;;16.29;79.61;97898.61;1784926;80;27433;-76
2022/08/07 00:53:22;;;;;;;6.45;3.70;;;;;;;16.24;79.56;97894.39;1784854;80;25737;-76
2022/08/07 00:55:49;;;;;;;7.45;4.00;;;;;;;16.20;79.56;97897.58;1785134;80;25678;-76
2022/08/07 00:58:15;;;;;;;6.72;4.05;;;;;;;16.18;79.64;97892.89;1785185;80;26291;-76
2022/08/07 01:00:42;;;;;;;5.87;3.85;;;;;;;16.18;79.64;97898.34;1760365;80;25795;-76
2022/08/07 01:03:09;;;;;;;4.60;3.08;;;;;;;16.19;79.68;97893.72;1785057;80;27393;-76
2022/08/07 01:05:37;;;;;;;6.70;3.08;;;;;;;16.15;79.69;97892.02;1785030;80;25710;-76
2022/08/07 01:08:04;;;;;;;6.62;3.12;;;;;;;16.15;79.68;97887.94;1785023;80;25845;-76
2022/08/07 01:10:30;;;;;;;9.78;3.30;;;;;;;16.15;79.66;97887.94;1785092;80;25659;-76
2022/08/07 01:12:57;;;;;;;6.00;3.50;;;;;;;16.15;79.63;97889.30;1785238;80;25798;-76
2022/08/07 01:15:24;;;;;;;5.92;3.35;;;;;;;16.14;79.60;97891.72;1785116;80;27436;-76
2022/08/07 01:17:51;;;;;;;5.17;3.00;;;;;;;16.15;79.59;97886.58;1785107;80;25714;-76
2022/08/07 01:20:21;;;;;;;6.70;3.17;;;;;;;16.14;79.54;97890.36;1785118;80;25765;-75
2022/08/07 01:22:48;;;;;;;7.80;3.15;;;;;;;16.12;79.57;97893.02;1782054;80;25992;-75
2022/08/07 01:25:15;;;;;;;6.40;3.50;;;;;;;16.12;79.64;97886.20;1785028;80;25776;-75
2022/08/07 01:27:42;;;;;;;5.80;3.45;;;;;;;16.10;79.56;97886.97;1785214;80;27949;-76
2022/08/07 01:30:10;;;;;;;5.58;3.20;;;;;;;16.05;79.64;97886.33;1784959;80;25677;-75
2022/08/07 01:32:36;;;;;;;9.23;4.08;;;;;;;16.06;79.73;97883.08;1785215;80;25679;-76
2022/08/07 01:35:04;;;;;;;4.10;3.70;;;;;;;16.05;79.71;97883.61;1785117;80;25646;-75
2022/08/07 01:37:31;;;;;;;3.95;3.40;;;;;;;16.07;79.72;97884.70;1760875;80;25601;-76
2022/08/07 01:40:00;;;;;;;5.37;3.20;;;;;;;16.08;79.68;97886.37;1785091;80;28101;-75
2022/08/07 01:42:27;;;;;;;6.17;3.80;;;;;;;16.07;79.75;97882.81;1784957;80;25845;-76
2022/08/07 01:44:53;;;;;;;5.05;3.15;;;;;;;16.08;79.73;97875.47;1784891;80;25749;-75
2022/08/07 01:47:21;;;;;;;3.45;2.80;;;;;;;16.07;79.72;97883.34;1784789;80;25803;-76
2022/08/07 01:49:47;;;;;;;7.45;3.08;;;;;;;16.05;79.76;97878.16;1785241;80;25638;-76
2022/08/07 01:52:14;;;;;;;6.05;3.33;;;;;;;16.05;79.77;97870.52;1784825;80;26856;-76
2022/08/07 01:54:41;;;;;;;6.47;3.85;;;;;;;16.05;79.77;97871.88;1785168;80;26326;-76
2022/08/07 01:57:33;;;;;;;4.60;3.90;;;;;;;16.05;79.74;97875.97;1760848;80;25279;-76
2022/08/07 02:00:10;;;;;;;4.80;4.25;;;;;;;16.05;79.80;97873.25;1785124;80;25681;-76
2022/08/07 02:02:53;;;;;;;4.53;4.10;;;;;;;16.04;79.89;97870.22;1785148;80;25232;-76
2022/08/07 02:05:33;;;;;;;7.90;4.33;;;;;;;15.99;79.88;97864.11;1785137;80;27402;-76
2022/08/07 02:08:05;;;;;;;7.95;4.92;;;;;;;15.94;79.96;97862.61;1781735;80;25200;-75
2022/08/07 02:10:33;;;;;;;4.70;4.15;;;;;;;15.95;80.03;97857.46;1781523;80;25685;-75
2022/08/07 02:13:02;;;;;;;7.87;4.50;;;;;;;15.97;80.12;97855.34;1785070;80;25725;-76
2022/08/07 02:15:30;;;;;;;6.55;4.22;;;;;;;15.95;80.00;97862.08;1785052;80;25737;-75
2022/08/07 02:17:59;;;;;;;7.60;4.42;;;;;;;15.94;80.07;97861.80;1785075;80;27378;-76
2022/08/07 02:20:29;;;;;;;7.70;4.42;;;;;;;15.94;80.15;97863.97;1784610;80;25681;-76
2022/08/07 02:23:00;;;;;;;5.95;4.42;;;;;;;15.97;80.13;97866.23;1784962;80;25749;-76
2022/08/07 02:25:30;;;;;;;5.90;4.20;;;;;;;15.97;80.09;97870.31;1781072;80;26316;-76
2022/08/07 02:27:59;;;;;;;6.28;4.50;;;;;;;15.95;80.09;97867.52;1785292;80;25687;-76
2022/08/07 02:30:28;;;;;;;7.90;4.65;;;;;;;15.89;80.05;97870.66;1785119;80;27990;-75
2022/08/07 02:32:57;;;;;;;9.20;5.17;;;;;;;15.87;80.18;97865.98;1784842;80;25693;-76
2022/08/07 02:35:24;;;;;;;7.45;5.10;;;;;;;15.82;80.14;97867.20;1784986;80;25742;-76
2022/08/07 02:37:52;;;;;;;7.80;5.33;;;;;;;15.82;80.26;97872.11;1785027;80;25638;-76
2022/08/07 02:40:19;;;;;;;7.80;5.05;;;;;;;15.86;80.29;97872.48;1785168;80;25456;-76
2022/08/07 02:42:46;;;;;;;4.45;4.05;;;;;;;15.88;80.32;97877.70;1785040;80;27348;-76
2022/08/07 02:45:16;;;;;;;9.43;4.60;;;;;;;15.85;80.30;97874.37;1784788;79;25811;-76
2022/08/07 02:47:42;;;;;;;5.70;4.70;;;;;;;15.86;80.39;97871.12;1784660;80;25740;-76
2022/08/07 02:50:10;;;;;;;4.40;4.00;;;;;;;15.87;80.34;97872.78;1784936;80;25751;-76
2022/08/07 02:52:44;;;;;;;7.25;4.42;;;;;;;15.91;80.35;97874.52;1784968;80;25254;-76
2022/08/07 02:55:21;;;;;;;7.80;3.98;;;;;;;15.89;80.31;97876.64;1781969;80;27334;-76
2022/08/07 02:57:50;;;;;;;6.35;4.12;;;;;;;15.83;80.33;97868.86;1703047;84;25797;-76
2022/08/07 03:00:17;;;;;;;8.75;4.55;;;;;;;15.82;80.42;97872.11;1705421;84;25806;-76
2022/08/07 03:02:48;;;;;;;7.25;4.62;;;;;;;15.83;80.47;97868.86;1705400;84;25838;-76
2022/08/07 03:05:16;;;;;;;8.40;3.95;;;;;;;15.84;80.44;97866.44;1705518;84;26110;-76
2022/08/07 03:07:44;;;;;;;4.80;4.40;;;;;;;15.86;80.50;97872.48;1732618;82;27426;-75
2022/08/07 03:10:11;;;;;;;4.67;3.62;;;;;;;15.88;80.46;97866.81;1723823;83;25818;-76
2022/08/07 03:12:39;;;;;;;5.37;3.90;;;;;;;15.89;80.44;97870.66;1705319;84;25444;-75
2022/08/07 03:15:07;;;;;;;6.67;4.80;;;;;;;15.90;80.46;97870.97;1705338;84;25747;-75
2022/08/07 03:17:36;;;;;;;7.35;4.40;;;;;;;15.92;80.47;97873.45;1703910;84;25739;-75
2022/08/07 03:20:04;;;;;;;8.40;4.95;;;;;;;15.89;80.43;97878.83;1705156;84;28274;-75
2022/08/07 03:22:32;;;;;;;8.88;5.37;;;;;;;15.89;80.52;97875.28;1705190;83;25757;-76
2022/08/07 03:24:59;;;;;;;10.63;4.80;;;;;;;15.89;80.55;97872.03;1705394;84;25730;-75
2022/08/07 03:27:27;;;;;;;9.80;4.28;;;;;;;15.91;80.51;97868.55;1705375;84;25795;-75
2022/08/07 03:29:56;;;;;;;6.03;4.83;;;;;;;15.89;80.53;97869.30;1705372;84;47969;-76
2022/08/07 03:32:26;;;;;;;12.58;4.80;;;;;;;15.89;80.54;97878.83;1727315;82;27449;-76
2022/08/07 03:34:56;;;;;;;9.10;4.70;;;;;;;15.89;80.59;97876.11;1747658;82;25746;-76
2022/08/07 03:37:24;;;;;;;7.72;4.72;;;;;;;15.89;80.58;97876.11;1748123;82;25720;-76
2022/08/07 03:39:52;;;;;;;10.80;5.28;;;;;;;15.85;80.56;97873.55;1747726;82;25735;-76
2022/08/07 03:42:20;;;;;;;8.60;4.83;;;;;;;15.88;80.62;97874.98;1748090;82;25699;-76
2022/08/07 03:44:47;;;;;;;6.90;4.50;;;;;;;15.86;80.63;97873.84;1748033;82;27453;-76
2022/08/07 03:47:14;;;;;;;9.43;4.97;;;;;;;15.87;80.65;97876.87;1746211;81;25753;-76
2022/08/07 03:49:42;;;;;;;6.42;4.55;;;;;;;15.88;80.63;97878.53;1726204;83;25719;-75
2022/08/07 03:52:11;;;;;;;10.25;6.20;;;;;;;15.88;80.66;97881.25;1726191;83;25765;-75
2022/08/07 03:54:37;;;;;;;7.50;4.67;;;;;;;15.88;80.63;97881.25;1726158;83;25782;-75
2022/08/07 03:57:05;;;;;;;8.73;5.25;;;;;;;15.88;80.69;97878.53;1727008;83;27468;-75
2022/08/07 03:59:32;;;;;;;6.55;4.25;;;;;;;15.91;80.68;97882.16;1714594;83;25802;-75
2022/08/07 04:01:59;;;;;;;9.78;4.28;;;;;;;15.92;80.68;97882.45;1726234;83;25718;-75
2022/08/07 04:04:25;;;;;;;5.33;3.40;;;;;;;15.94;80.63;97883.59;1701482;83;25731;-76
2022/08/07 04:06:52;;;;;;;3.90;3.40;;;;;;;15.95;80.54;97881.97;1727094;83;25750;-75
2022/08/07 04:09:20;;;;;;;6.05;3.72;;;;;;;15.94;80.44;97883.02;1716193;83;27319;-75
2022/08/07 04:11:49;;;;;;;5.25;4.03;;;;;;;15.90;80.47;97881.02;1726201;83;26336;-75
2022/08/07 04:14:16;;;;;;;9.93;5.37;;;;;;;15.90;80.63;97879.66;1726377;82;25770;-75
2022/08/07 04:16:43;;;;;;;7.47;4.47;;;;;;;15.92;80.64;97885.18;1727116;83;26338;-75
2022/08/07 04:19:09;;;;;;;5.22;3.30;;;;;;;15.94;80.66;97881.66;1744561;82;25711;-75
2022/08/07 04:21:36;;;;;;;9.45;3.50;;;;;;;15.91;80.56;97880.80;1727225;83;27363;-75
2022/08/07 04:24:05;;;;;;;3.67;3.20;;;;;;;15.88;80.64;97882.61;1744520;82;25793;-75
2022/08/07 04:26:31;;;;;;;4.50;3.17;;;;;;;15.87;80.65;97891.84;1727231;83;25718;-75
2022/08/07 04:28:58;;;;;;;5.17;2.98;;;;;;;15.88;80.73;97889.42;1744690;82;25711;-75
2022/08/07 04:31:25;;;;;;;7.67;3.58;;;;;;;15.93;80.80;97886.01;1726352;83;25799;-75
2022/08/07 04:33:52;;;;;;;3.67;3.30;;;;;;;15.97;80.74;97890.73;1726082;83;27426;-75
2022/08/07 04:36:18;;;;;;;6.95;3.62;;;;;;;15.97;80.75;97895.34;1719446;83;25883;-75
2022/08/07 04:38:45;;;;;;;7.00;3.30;;;;;;;15.97;80.81;97888.02;1728653;82;25772;-75
2022/08/07 04:41:11;;;;;;;7.22;4.22;;;;;;;15.96;80.69;97896.41;1741173;82;25700;-75
2022/08/07 04:43:41;;;;;;;5.70;3.42;;;;;;;15.92;80.39;97900.16;1730314;82;25732;-75
2022/08/07 04:46:19;;;;;;;5.22;3.30;;;;;;;15.95;80.34;97896.94;1705878;82;27496;-75
2022/08/07 04:49:12;;;;;;;4.97;3.72;;;;;;;15.97;80.35;97898.07;1718864;82;25883;-75
2022/08/07 04:52:02;;;;;;;;;;;;;;;15.99;80.29;97908.20;1726490;83;25687;-75
2022/08/07 04:54:34;;;;;;;6.28;2.77;;;;;;;16.00;80.33;97905.25;1718377;82;25751;-75
2022/08/07 04:57:28;;;;;;;4.22;2.75;;;;;;;15.98;80.16;97903.28;1715875;83;25282;-75
2022/08/07 05:00:12;;;;;;;7.25;3.10;;;;;;;16.01;80.18;97902.83;1662390;85;27455;-75
2022/08/07 05:02:54;;;;;;;6.15;2.83;;;;;;;16.05;80.14;97906.75;1665729;85;25345;-75
2022/08/07 05:05:37;;;;;;;4.00;2.90;;;;;;;16.08;79.99;97909.52;1665177;85;25751;-74
2022/08/07 05:08:15;;;;;;;7.17;2.95;;;;;;;16.10;79.91;97908.22;1583608;90;25925;-74
2022/08/07 05:10:53;;;;;;;4.92;2.70;;;;;;;16.13;79.74;97909.66;1550685;92;25823;-75
2022/08/07 05:13:35;;;;;;;6.15;2.55;;;;;;;16.16;79.59;97909.20;1550649;91;28108;-74
2022/08/07 05:16:08;;;;;;;6.58;2.80;;;;;;;16.17;79.58;97913.05;1547774;92;25962;-74
2022/08/07 05:18:39;;;;;;;4.90;2.70;;;;;;;16.15;79.47;97914.34;1550588;92;25902;-75
2022/08/07 05:21:09;;;;;;;4.75;2.37;;;;;;;16.15;79.53;97917.89;1523033;94;26437;-75
2022/08/07 05:23:58;;;;;;;8.65;2.65;;;;;;;16.17;79.35;97919.86;1523095;94;25936;-74
2022/08/07 05:26:28;;;;;;;5.83;2.60;;;;;;;16.20;79.49;97918.53;1522985;93;27476;-74
2022/08/07 05:28:59;;;;;;;3.42;2.58;;;;;;;16.24;79.56;97922.98;1522908;94;25897;-74
2022/08/07 05:31:32;;;;;;;4.37;2.65;;;;;;;16.28;79.73;97919.57;1522995;93;25886;-75
2022/08/07 05:34:01;;;;;;;4.42;2.50;;;;;;;16.31;79.63;97925.05;1522869;94;26934;-75
2022/08/07 05:36:30;;;;;;;6.67;2.40;;;;;;;16.35;79.59;97922.17;1530724;90;25865;-75
2022/08/07 05:38:57;;;;;;;5.78;2.85;;;;;;;16.39;79.61;97922.01;1625220;88;27365;-75
2022/08/07 05:41:25;;;;;;;3.50;2.35;;;;;;;16.44;79.59;97927.56;1625186;88;25852;-75
2022/08/07 05:43:54;;;;;;;4.10;2.40;;;;;;;16.41;79.06;97919.88;1625235;88;25326;-75
2022/08/07 05:46:22;;;;;;;3.40;2.30;;;;;;;16.44;79.09;97922.11;1624418;88;25743;-75
2022/08/07 05:48:51;;;;;;;4.10;2.37;;;;;;;16.48;78.88;97916.50;1604090;88;26084;-75
2022/08/07 05:51:18;;;;;;;2.65;2.40;;;;;;;16.49;78.65;97916.27;1600458;89;27447;-75
2022/08/07 05:53:46;;;;;;;4.62;2.35;;;;;;;16.52;78.60;97914.97;1600444;89;26637;-75
2022/08/07 05:56:14;;;;;;;3.45;2.33;;;;;;;16.56;78.45;97914.77;1600477;88;25869;-75
2022/08/07 05:58:43;;;;;;;6.10;2.75;;;;;;;16.61;78.41;97912.17;1600480;89;26489;-75
2022/08/07 06:01:11;;;;;;;3.25;2.45;;;;;;;16.62;78.35;97906.19;1600656;89;26473;-75
2022/08/07 06:03:39;;;;;;;4.65;2.40;;;;;;;16.66;78.17;97918.31;1633030;84;28291;-75
2022/08/07 06:06:07;;;;;;;6.08;2.40;;;;;;;16.71;78.16;97916.52;1688519;84;25596;-75
2022/08/07 06:08:34;;;;;;;6.33;2.42;;;;;;;16.78;78.03;97916.41;1688734;84;26032;-75
2022/08/07 06:11:00;;;;;;;3.45;1.80;;;;;;;16.78;77.75;97913.16;1688566;84;25838;-75
2022/08/07 06:13:27;;;;;;;4.12;2.12;;;;;;;16.79;77.50;97913.42;1688729;84;25726;-76
2022/08/07 06:15:54;;;;;;;3.98;2.08;;;;;;;16.83;77.24;97915.98;1688648;84;28070;-75
2022/08/07 06:18:22;;;;;;;4.60;2.60;;;;;;;16.89;77.33;97915.57;1725834;82;25786;-75
2022/08/07 06:20:49;;;;;;;4.12;2.25;;;;;;;16.98;77.32;97922.84;1747177;82;25793;-76
2022/08/07 06:23:16;;;;;;;7.62;2.27;;;;;;;17.05;76.91;97920.27;1731630;82;25795;-75
2022/08/07 06:25:44;;;;;;;5.78;2.17;;;;;;;17.08;76.63;97918.96;1718418;83;25688;-76
2022/08/07 06:28:10;;;;;;;4.03;2.10;;;;;;;17.10;76.40;97925.84;1731589;82;28039;-76
2022/08/07 06:30:39;;;;;;;5.50;2.17;;;;;;;17.13;76.36;97921.81;1747493;82;25679;-76
2022/08/07 06:33:06;;;;;;;4.05;2.52;;;;;;;17.18;75.99;97927.36;1747486;82;25697;-76
2022/08/07 06:35:35;;;;;;;4.58;1.85;;;;;;;17.22;75.81;97925.81;1743222;82;25753;-76
2022/08/07 06:38:03;;;;;;;3.80;2.10;;;;;;;17.25;75.53;97930.27;1720754;83;25939;-76
2022/08/07 06:40:35;;;;;;;2.77;1.90;;;;;;;17.31;75.47;97924.89;1718264;83;27425;-76
2022/08/07 06:43:04;;;;;;;4.72;1.65;;;;;;;17.36;75.39;97932.66;1633178;86;25723;-75
2022/08/07 06:45:33;;;;;;;3.72;1.75;;;;;;;17.46;75.25;97927.41;1635926;87;25756;-76
2022/08/07 06:48:00;;;;;;;5.80;1.77;;;;;;;17.52;74.45;97929.15;1636330;86;25888;-77
2022/08/07 06:50:28;;;;;;;3.87;1.30;;;;;;;17.55;74.01;97930.56;1646314;87;26290;-76
2022/08/07 06:52:57;;;;;;;2.47;1.30;;;;;;;17.57;73.76;97926.53;1636392;87;27406;-77
2022/08/07 06:55:28;;;;;;;3.27;1.35;;;;;;;17.62;73.66;97929.38;1646256;87;25912;-77
2022/08/07 06:58:02;;;;;;;4.62;1.75;;;;;;;17.75;73.73;97938.38;1636324;87;25893;-77
2022/08/07 07:00:36;;;;;;;8.80;1.60;;;;;;;17.88;73.46;97927.13;1646117;87;25796;-77
2022/08/07 07:03:04;;;;;;;2.80;1.40;;;;;;;17.98;73.27;97924.60;1636615;87;25749;-77
2022/08/07 07:05:31;;;;;;;3.27;1.40;;;;;;;18.09;72.91;97914.67;1646368;87;28283;-76
2022/08/07 07:07:57;;;;;;;4.60;1.37;;;;;;;18.16;72.56;97920.80;1636371;86;25794;-76
2022/08/07 07:10:33;;;;;;;5.78;1.57;;;;;;;18.22;72.26;97920.66;1646267;87;26429;-77
2022/08/07 07:13:12;;;;;;;2.15;1.50;;;;;;;18.30;71.99;97920.23;1636521;87;25833;-77
2022/08/07 07:15:46;;;;;;;2.80;1.55;;;;;;;18.41;71.86;97914.39;1618505;88;25726;-77
2022/08/07 07:18:32;;;;;;;5.37;1.17;;;;;;;18.51;71.27;97917.81;1551618;92;27600;-77
2022/08/07 07:21:04;;;;;;;3.37;1.50;;;;;;;18.56;70.95;97913.27;1554560;91;25815;-77
2022/08/07 07:23:31;;;;;;;2.47;1.37;;;;;;;18.60;70.57;97914.97;1552590;91;25411;-77
2022/08/07 07:26:04;;;;;;;2.27;1.40;;;;;;;18.65;70.54;97919.16;1554557;92;25903;-77
2022/08/07 07:28:52;;;;;;;3.80;1.40;;;;;;;18.69;70.31;97912.95;1554873;92;25757;-77
2022/08/07 07:31:23;;;;;;;2.47;1.40;;;;;;;18.69;69.91;97923.89;1554644;91;27493;-77
2022/08/07 07:33:54;;;;;;;4.72;1.60;;;;;;;18.71;69.46;97923.65;1554698;92;26522;-77
2022/08/07 07:36:24;;;;;;;1.73;1.30;;;;;;;18.78;69.48;97922.92;1555008;92;25982;-77
2022/08/07 07:38:51;;;;;;;3.58;1.50;;;;;;;18.83;69.13;97925.73;1554575;92;26503;-77
2022/08/07 07:41:21;;;;;;;3.98;1.30;;;;;;;18.87;68.83;97926.88;1544177;92;25893;-77
2022/08/07 07:43:50;;;;;;;3.42;1.50;;;;;;;18.87;68.47;97922.77;1554642;92;27419;-77
2022/08/07 07:46:18;;;;;;;1.98;1.40;;;;;;;18.90;68.21;97916.80;1529610;93;25870;-77
2022/08/07 07:48:47;;;;;;;2.02;1.82;;;;;;;18.92;67.55;97920.66;1531376;93;26032;-77
2022/08/07 07:51:17;;;;;;;2.75;1.70;;;;;;;18.89;67.60;97924.72;1556736;92;25785;-78
2022/08/07 07:53:45;;;;;;;3.27;1.70;;;;;;;18.92;67.43;97931.59;1556767;92;25918;-77
2022/08/07 07:56:13;;;;;;;3.58;1.80;;;;;;;18.94;67.12;97933.01;1556872;92;27400;-77
2022/08/07 07:58:41;;;;;;;6.22;1.70;;;;;;;18.99;66.83;97929.50;1556624;92;25564;-77
2022/08/07 08:01:10;;;;;;;2.72;1.82;;;;;;;18.99;66.50;97931.70;1556766;92;25440;-76
2022/08/07 08:03:38;;;;;;;3.22;1.70;;;;;;;18.98;66.18;97935.51;1556504;92;26016;-77
2022/08/07 08:06:07;;;;;;;2.65;1.42;;;;;;;19.02;65.88;97933.94;1556714;92;25857;-78
2022/08/07 08:08:35;;;;;;;1.60;1.50;;;;;;;19.10;66.31;97934.56;1556868;92;27477;-77
2022/08/07 08:11:04;;;;;;;2.83;1.87;;;;;;;19.17;66.25;97935.23;1556524;92;25910;-77
2022/08/07 08:13:32;;;;;;;3.42;2.00;;;;;;;19.23;66.30;97934.20;1556685;92;25871;-77
2022/08/07 08:16:01;;;;;;;2.85;1.60;;;;;;;19.33;66.23;97928.31;1673514;83;26406;-77
2022/08/07 08:18:29;;;;;;;3.65;1.75;;;;;;;19.42;66.14;97926.80;1743541;82;25667;-77
2022/08/07 08:21:01;;;;;;;4.45;1.60;;;;;;;19.55;66.24;97926.98;1743467;82;28031;-77
2022/08/07 08:29:04;;;;;;;2.33;1.72;;;;;;;19.81;65.42;97919.85;1699525;84;26640;-78
2022/08/07 08:31:35;;;;;;;2.65;1.60;;;;;;;20.10;65.82;97920.42;1699724;84;25293;-79
2022/08/07 08:34:05;;;;;;;2.25;1.60;;;;;;;20.34;65.01;97920.91;1699689;84;27397;-78
2022/08/07 08:36:33;;;;;;;2.10;1.50;;;;;;;20.55;64.85;97916.44;1699581;84;25858;-79
2022/08/07 08:39:02;;;;;;;3.87;1.80;;;;;;;20.69;64.26;97917.64;1699775;84;25787;-79
2022/08/07 08:41:52;;;;;;;1.98;1.40;;;;;;;20.65;63.88;97900.08;1699704;84;25846;-79
2022/08/07 08:44:42;;;;;;;3.35;1.40;;;;;;;20.85;63.67;97922.98;1695421;84;25710;-79
2022/08/07 08:47:26;;;;;;;3.05;1.92;;;;;;;20.90;63.27;97919.42;1694244;84;27498;-78
2022/08/07 08:50:26;;;;;;;2.37;2.10;;;;;;;20.99;63.49;97912.91;1644687;85;25503;-78
2022/08/07 08:53:04;;;;;;;3.95;1.60;;;;;;;21.04;62.92;97906.88;1655515;86;25385;-78
2022/08/07 08:55:42;;;;;;;2.70;1.52;;;;;;;20.97;62.32;97913.72;1671122;85;25676;-79
2022/08/07 08:58:25;;;;;;;4.03;1.80;;;;;;;20.92;62.49;97916.41;1601070;89;25732;-79
2022/08/07 09:00:57;;;;;;;1.75;1.50;;;;;;;20.96;62.42;97918.92;1596395;89;27468;-79
2022/08/07 09:03:31;;;;;;;2.42;1.60;;;;;;;20.97;62.35;97924.69;1598622;89;33192;-78
2022/08/07 09:06:08;;;;;;;2.70;1.52;;;;;;;20.76;61.51;97934.72;1614174;88;25827;-78
2022/08/07 09:08:58;;;;;;;3.33;1.60;;;;;;;20.76;61.51;97934.72;1621541;88;25666;-78
2022/08/07 09:11:39;;;;;;;2.80;1.80;;;;;;;20.80;61.72;97937.20;1604819;89;25881;-79
2022/08/07 09:14:19;;;;;;;5.97;1.95;;;;;;;20.68;61.53;97933.81;1602341;89;28240;-79
2022/08/07 09:17:03;;;;;;;4.08;1.90;;;;;;;20.41;61.68;97912.77;1578937;90;25835;-79
2022/08/07 09:19:58;;;;;;;2.67;1.67;;;;;;;20.39;61.23;97932.80;1589916;88;25822;-79
2022/08/07 09:22:30;;;;;;;4.22;1.92;;;;;;;20.39;61.23;97932.80;1592936;90;25817;-79
2022/08/07 09:25:14;;;;;;;2.02;1.80;;;;;;;20.29;61.32;97931.28;1580701;90;25937;-79
2022/08/07 09:28:06;;;;;;;3.37;1.80;;;;;;;20.20;61.40;97931.48;1561835;91;28152;-78
2022/08/07 09:30:47;;;;;;;5.70;2.30;;;;;;;20.13;61.37;97930.88;1478874;97;32680;-79
2022/08/07 09:33:34;;;;;;;7.55;2.40;;;;;;;20.00;61.63;97933.49;1473796;97;25940;-77
2022/08/07 09:36:20;;;;;;;2.62;1.80;;;;;;;19.78;61.62;97913.00;1473332;97;25824;-78
2022/08/07 09:39:31;;;;;;;3.00;1.95;;;;;;;19.87;61.76;97924.85;1461045;97;25797;-78
2022/08/07 09:42:20;;;;;;;3.87;1.92;;;;;;;19.83;61.83;97923.70;1501528;95;28123;-79
2022/08/07 09:45:16;;;;;;;7.08;2.00;;;;;;;19.86;62.08;97923.20;1499980;95;25924;-79
2022/08/07 09:48:11;;;;;;;4.28;2.17;;;;;;;19.92;62.04;97913.42;1488296;96;25724;-79
2022/08/07 09:51:04;;;;;;;5.92;2.15;;;;;;;19.89;61.98;97907.08;1483605;96;25825;-78
2022/08/07 09:53:37;;;;;;;4.78;2.15;;;;;;;19.89;62.02;97910.36;1483476;96;25920;-78
2022/08/07 09:56:20;;;;;;;6.22;2.25;;;;;;;19.88;62.06;97911.45;1483657;96;27525;-79
2022/08/07 09:59:30;;;;;;;5.72;2.30;;;;;;;19.89;62.02;97907.63;1480996;96;25892;-79
2022/08/07 10:02:23;;;;;;;3.75;2.00;;;;;;;19.95;61.95;97912.05;1474868;96;25917;-78
2022/08/07 10:05:12;;;;;;;;;;;;;;;19.92;61.69;97907.11;1441021;98;26396;-78
2022/08/07 10:08:28;;;;;;;3.72;2.27;;;;;;;19.87;61.08;97905.68;1469679;97;25412;-78
2022/08/07 10:11:21;;;;;;;3.65;1.77;;;;;;;19.89;61.71;97903.52;1472442;97;27645;-79
2022/08/07 10:14:26;;;;;;;4.17;2.17;;;;;;;19.95;61.55;97899.18;1472030;97;26070;-78
2022/08/07 10:17:38;;;;;;;2.95;1.80;;;;;;;19.97;61.31;97899.75;1472490;96;25897;-78
2022/08/07 10:20:46;;;;;;;4.40;1.40;;;;;;;19.94;60.64;97897.52;1472400;96;26417;-78
2022/08/07 10:23:35;;;;;;;3.25;1.62;;;;;;;19.89;60.55;97896.13;1434052;100;25929;-77
2022/08/07 10:26:43;;;;;;;4.58;1.60;;;;;;;19.90;60.66;97892.84;1467974;96;27664;-78
2022/08/07 10:29:46;;;;;;;4.65;1.60;;;;;;;19.88;60.66;97897.20;1507537;95;25883;-78
2022/08/07 10:32:44;;;;;;;6.55;1.77;;;;;;;19.93;60.57;97892.30;1522178;94;25358;-79
2022/08/07 10:35:30;;;;;;;3.02;1.45;;;;;;;20.02;60.62;97882.55;1507579;95;26437;-79
2022/08/07 10:38:07;;;;;;;2.12;1.50;;;;;;;20.06;60.33;97885.02;1507519;95;25565;-78
2022/08/07 10:40:47;;;;;;;3.65;1.55;;;;;;;20.12;59.96;97882.63;1555300;91;28544;-80
2022/08/07 10:43:42;;;;;;;3.55;1.25;;;;;;;20.21;59.67;97882.42;1607379;88;25917;-79
2022/08/07 10:46:22;;;;;;;6.28;1.62;;;;;;;20.29;59.48;97884.67;1535785;93;25867;-79
2022/08/07 10:49:04;;;;;;;5.17;1.60;;;;;;;20.40;59.32;97876.87;1532781;93;25889;-78
2022/08/07 10:51:42;;;;;;;1.50;1.27;;;;;;;20.57;59.43;97880.81;1538790;91;25850;-79
2022/08/07 10:54:32;;;;;;;2.47;1.40;;;;;;;20.75;59.36;97875.45;1555944;91;27613;-79
2022/08/07 10:57:06;;;;;;;3.42;1.37;;;;;;;20.93;58.81;97870.88;1507073;93;25599;-78
2022/08/07 10:59:53;;;;;;;4.10;1.35;;;;;;;20.93;58.81;97870.88;1506852;95;25820;-78
2022/08/07 11:02:40;;;;;;;5.03;1.40;;;;;;;21.02;58.61;97863.78;1495528;95;25823;-79
2022/08/07 11:05:52;;;;;;;1.55;1.25;;;;;;;20.99;58.07;97862.97;1447242;98;25810;-79
2022/08/07 11:08:56;;;;;;;4.92;1.30;;;;;;;21.01;58.42;97865.45;1449470;98;27629;-79
2022/08/07 11:11:53;;;;;;;3.75;1.42;;;;;;;20.98;57.98;97861.31;1490655;96;25851;-79
2022/08/07 11:14:42;;;;;;;4.45;2.00;;;;;;;20.97;57.54;97861.03;1492293;96;25819;-79
2022/08/07 11:17:32;;;;;;;4.75;1.55;;;;;;;21.04;57.99;97858.86;1510466;92;26541;-79
2022/08/07 11:20:18;;;;;;;4.58;1.70;;;;;;;21.15;57.73;97857.80;1536489;92;25800;-78
2022/08/07 11:23:23;;;;;;;3.20;1.77;;;;;;;21.22;57.54;97848.54;1560967;90;27400;-78
2022/08/07 11:26:04;;;;;;;3.33;1.80;;;;;;;21.22;57.52;97852.11;1559881;91;25742;-79
2022/08/07 11:28:50;;;;;;;3.40;1.98;;;;;;;21.27;57.56;97850.73;1561539;91;26731;-79
2022/08/07 11:32:04;;;;;;;4.20;1.65;;;;;;;21.18;56.79;97825.73;1536307;93;25902;-79
2022/08/07 11:34:48;;;;;;;4.53;1.75;;;;;;;21.30;56.56;97846.64;1557734;91;25794;-79
2022/08/07 11:38:11;;;;;;;2.35;1.70;;;;;;;21.33;56.32;97845.56;1562266;90;28131;-79
2022/08/07 11:40:50;;;;;;;3.47;1.50;;;;;;;21.29;56.51;97847.19;1600972;88;25798;-79
2022/08/07 11:43:26;;;;;;;5.65;1.27;;;;;;;21.40;56.47;97829.64;1604961;88;25849;-78
2022/08/07 11:46:17;;;;;;;3.47;1.47;;;;;;;21.50;56.37;97828.29;1605035;89;25757;-79
2022/08/07 11:49:12;;;;;;;3.20;1.60;;;;;;;21.62;56.04;97830.78;1596501;89;25808;-79
2022/08/07 11:52:08;;;;;;;5.30;1.98;;;;;;;21.77;56.36;97829.98;1572347;91;27438;-78
2022/08/07 11:55:15;;;;;;;3.08;1.50;;;;;;;21.88;55.96;97828.35;1572382;91;26488;-78
2022/08/07 11:57:53;;;;;;;2.25;1.30;;;;;;;21.96;56.05;97827.55;1569942;91;25820;-80
2022/08/07 12:00:31;;;;;;;2.35;1.70;;;;;;;21.94;55.79;97815.45;1558168;92;25747;-79
2022/08/07 12:03:12;;;;;;;2.98;1.45;;;;;;;22.11;55.64;97830.31;1548629;91;25834;-79
2022/08/07 12:06:02;;;;;;;5.00;1.52;;;;;;;22.15;55.06;97836.92;1506286;95;27672;-80
2022/08/07 12:08:36;;;;;;;1.92;1.70;;;;;;;22.17;54.93;97832.80;1481912;96;26469;-79
2022/08/07 12:11:20;;;;;;;4.00;1.40;;;;;;;22.20;54.78;97831.44;1492583;95;25833;-79
2022/08/07 12:14:10;;;;;;;4.35;1.60;;;;;;;22.27;54.82;97829.22;1441460;98;26603;-78
2022/08/07 12:17:02;;;;;;;2.83;1.30;;;;;;;22.44;55.06;97824.26;1420230;99;25404;-79